Time;durP1;ratioP1;P1;durP2;ratioP2;P2;SDS_P1;SDS_P2;PMS_P1;PMS_P2;Temp;Humidity;BMP_temperature;BMP_pressure;BME280_temperature;BME280_humidity;BME280_pressure;Samples;Min_cycle;Max_cycle;Signal;HPM_P1;HPM_P2
2021/07/25 00:00:16;;;;;;;19.40;17.33;;;22.20;74.50;;;;;;2056200;28;20031;-71
2021/07/25 00:01:17;;;;;;;20.08;17.92;;;22.10;74.50;;;;;;2056323;28;20561;-71
2021/07/25 00:02:18;;;;;;;21.88;18.98;;;22.10;74.70;;;;;;2055508;28;20513;-72
2021/07/25 00:03:18;;;;;;;20.13;17.52;;;22.10;74.90;;;;;;2055629;28;20033;-71
2021/07/25 00:04:19;;;;;;;21.75;18.92;;;22.00;74.80;;;;;;2055619;28;20047;-71
2021/07/25 00:05:19;;;;;;;21.55;18.52;;;22.00;75.20;;;;;;2046878;28;20094;-71
2021/07/25 00:06:20;;;;;;;21.55;18.38;;;22.00;75.70;;;;;;2056129;28;20042;-71
2021/07/25 00:07:21;;;;;;;21.85;17.90;;;21.90;76.10;;;;;;2056662;28;20126;-70
2021/07/25 00:08:22;;;;;;;21.10;18.63;;;21.90;76.20;;;;;;2056660;28;20026;-71
2021/07/25 00:09:22;;;;;;;22.00;18.75;;;21.90;76.40;;;;;;2056586;28;20035;-70
2021/07/25 00:10:23;;;;;;;23.35;18.92;;;21.80;76.60;;;;;;2056103;28;20034;-73
2021/07/25 00:11:24;;;;;;;20.98;18.38;;;21.80;76.70;;;;;;2048107;28;20122;-71
2021/07/25 00:12:24;;;;;;;22.90;18.70;;;21.80;76.70;;;;;;2056043;28;20035;-70
2021/07/25 00:13:25;;;;;;;22.00;18.27;;;21.80;76.70;;;;;;2056762;28;20114;-74
2021/07/25 00:14:26;;;;;;;22.38;19.52;;;21.80;76.40;;;;;;2056654;28;20113;-72
2021/07/25 00:15:26;;;;;;;20.73;18.50;;;21.70;76.50;;;;;;2055495;28;20070;-71
2021/07/25 00:16:27;;;;;;;20.58;18.33;;;21.70;76.70;;;;;;2056437;28;20027;-71
2021/07/25 00:17:27;;;;;;;22.00;19.63;;;21.70;76.80;;;;;;2056856;28;20470;-73
2021/07/25 00:18:28;;;;;;;21.65;19.33;;;21.70;77.00;;;;;;2056876;28;20027;-71
2021/07/25 00:19:28;;;;;;;23.52;19.13;;;21.70;77.20;;;;;;2056839;28;20034;-71
2021/07/25 00:20:29;;;;;;;21.65;19.20;;;21.60;77.70;;;;;;2056432;28;20589;-71
2021/07/25 00:21:30;;;;;;;22.85;19.90;;;21.60;77.80;;;;;;2055930;28;20038;-72
2021/07/25 00:22:31;;;;;;;26.55;20.20;;;21.60;77.90;;;;;;2057018;28;20030;-71
2021/07/25 00:23:31;;;;;;;22.38;19.52;;;21.60;78.00;;;;;;2056991;28;20045;-71
2021/07/25 00:24:35;;;;;;;22.67;19.95;;;21.60;78.30;;;;;;2056974;28;20030;-74
2021/07/25 00:25:36;;;;;;;23.70;19.60;;;21.60;78.80;;;;;;2056253;28;20081;-74
2021/07/25 00:26:47;;;;;;;22.90;19.33;;;21.50;78.90;;;;;;2057119;28;20080;-72
2021/07/25 00:27:52;;;;;;;22.45;19.42;;;21.50;78.80;;;;;;2056896;28;20405;-71
2021/07/25 00:28:53;;;;;;;23.63;19.60;;;21.50;78.60;;;;;;2057911;28;20027;-72
2021/07/25 00:29:54;;;;;;;22.90;19.80;;;21.50;78.60;;;;;;2059652;28;20371;-72
2021/07/25 00:30:54;;;;;;;22.35;19.90;;;21.40;78.90;;;;;;2059520;28;20049;-71
2021/07/25 00:31:55;;;;;;;27.17;20.17;;;21.40;79.10;;;;;;2059367;28;20393;-70
2021/07/25 00:32:55;;;;;;;24.80;21.00;;;21.40;82.00;;;;;;2059587;28;20363;-74
2021/07/25 00:33:56;;;;;;;23.20;20.35;;;21.40;83.90;;;;;;2059483;28;20077;-72
2021/07/25 00:34:58;;;;;;;28.63;21.30;;;21.40;85.50;;;;;;2059122;28;20034;-70
2021/07/25 00:36:04;;;;;;;24.42;20.08;;;21.40;82.90;;;;;;2057610;28;20057;-70
2021/07/25 00:37:04;;;;;;;22.85;19.48;;;21.40;83.50;;;;;;2058518;28;20053;-71
2021/07/25 00:38:05;;;;;;;21.75;19.33;;;21.30;83.10;;;;;;2058998;28;20556;-70
2021/07/25 00:39:10;;;;;;;21.98;19.35;;;21.30;83.00;;;;;;2058416;28;20027;-72
2021/07/25 00:40:33;;;;;;;22.30;19.02;;;21.30;83.00;;;;;;2058511;28;20415;-70
2021/07/25 00:41:34;;;;;;;22.92;19.48;;;21.30;83.70;;;;;;2059216;28;20529;-74
2021/07/25 00:42:39;;;;;;;22.92;19.73;;;21.20;84.10;;;;;;2058572;28;20030;-71
2021/07/25 00:43:40;;;;;;;21.75;19.42;;;21.20;84.20;;;;;;2058565;28;20606;-73
2021/07/25 00:44:41;;;;;;;22.02;19.42;;;21.20;84.30;;;;;;2059191;28;20481;-70
2021/07/25 00:45:41;;;;;;;23.70;19.80;;;21.20;84.30;;;;;;2058511;28;20027;-71
2021/07/25 00:46:45;;;;;;;25.05;21.33;;;21.20;85.20;;;;;;2059114;28;20430;-74
2021/07/25 00:47:47;;;;;;;23.73;20.10;;;21.20;85.70;;;;;;2059399;28;20035;-74
2021/07/25 00:48:48;;;;;;;23.15;19.67;;;21.10;85.10;;;;;;2059124;28;20027;-70
2021/07/25 00:49:49;;;;;;;23.20;20.05;;;21.10;85.20;;;;;;2059234;28;20043;-71
2021/07/25 00:50:49;;;;;;;22.30;19.30;;;21.10;86.20;;;;;;2058506;28;20030;-71
2021/07/25 00:51:50;;;;;;;22.58;19.88;;;21.10;85.40;;;;;;2050341;28;20039;-69
2021/07/25 00:52:52;;;;;;;21.70;19.27;;;21.10;85.00;;;;;;2058156;28;20030;-70
2021/07/25 00:53:53;;;;;;;22.77;18.98;;;21.10;84.70;;;;;;2058976;28;20019;-72
2021/07/25 00:54:54;;;;;;;21.35;19.05;;;21.10;84.80;;;;;;2058869;28;20031;-71
2021/07/25 00:55:56;;;;;;;20.92;17.90;;;21.10;85.20;;;;;;2058172;28;20130;-71
2021/07/25 00:56:56;;;;;;;21.67;18.83;;;21.10;85.30;;;;;;2059040;28;20081;-73
2021/07/25 00:57:59;;;;;;;21.60;19.25;;;21.10;85.80;;;;;;2059212;28;20615;-70
2021/07/25 00:59:00;;;;;;;21.33;19.02;;;21.10;85.80;;;;;;2059183;28;20038;-70
2021/07/25 01:00:01;;;;;;;22.70;18.75;;;21.10;85.60;;;;;;2059099;28;20018;-74
2021/07/25 01:01:01;;;;;;;20.95;18.65;;;21.10;85.60;;;;;;2059033;28;20505;-70
2021/07/25 01:02:02;;;;;;;22.55;19.17;;;21.10;85.60;;;;;;2058937;28;20113;-71
2021/07/25 01:03:31;;;;;;;20.55;18.25;;;21.00;85.50;;;;;;2059147;28;20038;-72
2021/07/25 01:04:44;;;;;;;26.80;18.83;;;21.10;86.00;;;;;;2043880;28;20100;-72
2021/07/25 01:05:58;;;;;;;21.83;18.67;;;21.10;86.00;;;;;;2057360;28;20049;-71
2021/07/25 01:07:14;;;;;;;21.77;18.20;;;21.10;85.90;;;;;;2058298;28;20031;-71
2021/07/25 01:08:30;;;;;;;20.42;18.17;;;21.10;85.70;;;;;;2058708;28;20030;-72
2021/07/25 01:09:45;;;;;;;23.77;19.20;;;21.10;85.80;;;;;;2058753;28;20089;-70
2021/07/25 01:10:49;;;;;;;21.55;18.45;;;21.10;85.90;;;;;;2058085;28;20031;-70
2021/07/25 01:11:55;;;;;;;20.90;18.63;;;21.10;85.60;;;;;;2058137;28;20171;-70
2021/07/25 01:13:00;;;;;;;21.33;18.42;;;21.10;85.60;;;;;;2058769;28;20027;-70
2021/07/25 01:14:03;;;;;;;20.33;18.23;;;21.10;85.70;;;;;;2058888;28;20121;-70
2021/07/25 01:15:05;;;;;;;23.08;18.48;;;21.10;85.80;;;;;;2058749;28;20023;-71
2021/07/25 01:16:07;;;;;;;21.15;18.50;;;21.10;85.60;;;;;;2058067;28;20482;-72
2021/07/25 01:17:22;;;;;;;19.98;17.65;;;21.10;85.40;;;;;;2058963;28;20026;-72
2021/07/25 01:18:23;;;;;;;20.85;18.48;;;21.20;85.50;;;;;;2058785;28;20023;-70
2021/07/25 01:19:23;;;;;;;20.15;17.30;;;21.20;85.50;;;;;;2058841;28;20023;-71
2021/07/25 01:20:24;;;;;;;21.40;18.00;;;21.20;85.20;;;;;;2058867;28;20066;-71
2021/07/25 01:21:24;;;;;;;21.13;18.30;;;21.20;84.60;;;;;;2058806;28;20038;-70
2021/07/25 01:22:27;;;;;;;20.38;17.38;;;21.20;84.00;;;;;;2058907;28;20082;-70
2021/07/25 01:23:29;;;;;;;18.88;16.83;;;21.20;83.80;;;;;;2058727;28;20114;-70
2021/07/25 01:24:29;;;;;;;20.00;16.98;;;21.20;83.40;;;;;;2058800;28;20030;-72
2021/07/25 01:25:30;;;;;;;18.98;16.60;;;21.20;83.20;;;;;;2057356;28;20505;-70
2021/07/25 01:26:35;;;;;;;19.17;17.10;;;21.20;83.10;;;;;;2058198;28;20399;-70
2021/07/25 01:27:36;;;;;;;20.95;16.95;;;21.20;82.00;;;;;;2058784;28;20081;-70
2021/07/25 01:28:40;;;;;;;18.88;15.65;;;21.20;81.40;;;;;;2058033;28;20490;-69
2021/07/25 01:29:42;;;;;;;19.00;16.50;;;21.20;81.20;;;;;;2058115;28;20041;-70
2021/07/25 01:30:55;;;;;;;20.25;17.35;;;21.20;80.70;;;;;;2058741;28;20077;-70
2021/07/25 01:31:56;;;;;;;19.73;16.85;;;21.20;81.10;;;;;;2058663;28;20479;-70
2021/07/25 01:33:01;;;;;;;19.65;17.55;;;21.20;80.40;;;;;;2058654;28;20023;-70
2021/07/25 01:34:02;;;;;;;20.58;17.63;;;21.20;80.50;;;;;;2059400;28;20082;-71
2021/07/25 01:35:04;;;;;;;19.33;17.25;;;21.20;80.80;;;;;;2058902;28;20050;-70
2021/07/25 01:36:05;;;;;;;20.52;17.48;;;21.20;80.20;;;;;;2057718;28;20047;-71
2021/07/25 01:37:05;;;;;;;21.95;17.15;;;21.20;80.20;;;;;;2058652;28;20034;-70
2021/07/25 01:38:09;;;;;;;20.00;17.45;;;21.20;80.00;;;;;;2058795;28;20546;-71
2021/07/25 01:39:10;;;;;;;19.20;16.98;;;21.10;80.10;;;;;;2058560;28;20035;-71
2021/07/25 01:40:15;;;;;;;19.10;16.85;;;21.10;79.70;;;;;;2058423;28;20029;-71
2021/07/25 01:41:16;;;;;;;19.63;16.17;;;21.10;79.80;;;;;;2056665;28;20046;-72
2021/07/25 01:42:30;;;;;;;18.42;16.25;;;21.10;79.80;;;;;;2057445;28;20026;-71
2021/07/25 01:43:34;;;;;;;17.60;15.70;;;21.00;79.50;;;;;;2059596;28;20027;-71
2021/07/25 01:44:34;;;;;;;19.35;15.75;;;21.00;79.70;;;;;;2060371;28;20399;-71
2021/07/25 01:45:35;;;;;;;17.25;15.30;;;21.00;79.60;;;;;;2056878;28;20125;-71
2021/07/25 01:46:36;;;;;;;17.58;15.02;;;21.00;79.40;;;;;;2057344;28;20035;-70
2021/07/25 01:47:37;;;;;;;17.33;15.35;;;21.00;79.40;;;;;;2057117;28;20038;-71
2021/07/25 01:48:38;;;;;;;17.20;15.35;;;21.00;79.40;;;;;;2056654;28;20029;-71
2021/07/25 01:49:39;;;;;;;17.30;15.27;;;21.00;79.50;;;;;;2056734;28;20509;-72
2021/07/25 01:50:40;;;;;;;17.45;15.15;;;20.90;79.30;;;;;;2057537;28;20059;-71
2021/07/25 01:51:40;;;;;;;16.90;15.10;;;20.90;79.20;;;;;;2057907;28;20027;-71
2021/07/25 01:52:42;;;;;;;17.15;14.18;;;20.90;79.00;;;;;;2058221;28;20482;-72
2021/07/25 01:53:43;;;;;;;16.55;14.38;;;20.90;79.20;;;;;;2057269;28;20034;-71
2021/07/25 01:54:44;;;;;;;17.25;14.77;;;20.90;79.40;;;;;;2057310;28;20027;-72
2021/07/25 01:55:44;;;;;;;17.20;14.85;;;20.90;79.30;;;;;;2056618;28;20463;-72
2021/07/25 01:56:45;;;;;;;16.92;15.10;;;20.90;79.20;;;;;;2057344;28;20031;-72
2021/07/25 01:57:45;;;;;;;16.60;14.80;;;20.90;79.30;;;;;;2057288;28;20041;-71
2021/07/25 01:58:46;;;;;;;17.45;14.77;;;20.90;79.70;;;;;;2056505;28;20026;-72
2021/07/25 01:59:46;;;;;;;16.85;15.00;;;20.80;79.70;;;;;;2056407;28;20375;-70
2021/07/25 02:00:47;;;;;;;16.42;14.60;;;20.90;79.70;;;;;;2057103;28;20760;-71
2021/07/25 02:01:48;;;;;;;17.00;15.20;;;20.80;80.00;;;;;;2056536;28;20555;-71
2021/07/25 02:02:49;;;;;;;16.70;14.80;;;20.80;80.20;;;;;;2056518;28;20031;-71
2021/07/25 02:03:49;;;;;;;16.45;14.70;;;20.80;80.60;;;;;;2057155;28;20037;-71
2021/07/25 02:04:50;;;;;;;17.80;14.93;;;20.80;80.60;;;;;;2057042;28;20050;-72
2021/07/25 02:05:51;;;;;;;17.27;14.82;;;20.80;80.50;;;;;;2056429;28;20110;-71
2021/07/25 02:06:52;;;;;;;16.45;14.65;;;20.80;80.60;;;;;;2057142;28;20027;-72
2021/07/25 02:07:52;;;;;;;17.45;14.88;;;20.70;80.60;;;;;;2057116;28;20042;-70
2021/07/25 02:08:53;;;;;;;16.35;14.57;;;20.70;80.80;;;;;;2057197;28;20023;-72
2021/07/25 02:09:54;;;;;;;17.38;14.93;;;20.70;80.80;;;;;;2057105;28;20019;-71
2021/07/25 02:10:54;;;;;;;15.88;14.00;;;20.70;80.80;;;;;;2056814;28;20033;-72
2021/07/25 02:11:55;;;;;;;17.75;14.75;;;20.70;80.60;;;;;;2057116;28;20035;-70
2021/07/25 02:12:57;;;;;;;15.32;13.73;;;20.70;80.30;;;;;;2057049;28;20026;-72
2021/07/25 02:13:57;;;;;;;15.85;14.15;;;20.70;80.40;;;;;;2057145;28;20024;-71
2021/07/25 02:14:58;;;;;;;15.60;13.93;;;20.70;80.40;;;;;;2056407;28;20546;-71
2021/07/25 02:15:58;;;;;;;16.45;13.80;;;20.80;80.20;;;;;;2055675;28;20030;-71
2021/07/25 02:17:00;;;;;;;16.23;14.48;;;20.80;80.00;;;;;;2056941;28;20027;-70
2021/07/25 02:18:01;;;;;;;16.08;14.30;;;20.80;80.10;;;;;;2057031;28;20027;-71
2021/07/25 02:19:01;;;;;;;15.65;14.00;;;20.80;80.10;;;;;;2057055;28;20482;-70
2021/07/25 02:20:03;;;;;;;16.98;14.32;;;20.80;80.30;;;;;;2057137;28;20502;-71
2021/07/25 02:21:04;;;;;;;16.52;14.73;;;20.80;80.60;;;;;;2056951;28;20578;-70
2021/07/25 02:22:05;;;;;;;17.58;15.30;;;20.90;82.10;;;;;;2057132;28;20054;-70
2021/07/25 02:23:06;;;;;;;18.95;15.75;;;20.90;85.10;;;;;;2057113;28;20115;-71
2021/07/25 02:24:07;;;;;;;19.25;15.27;;;20.90;85.00;;;;;;2056978;28;20508;-71
2021/07/25 02:25:08;;;;;;;17.92;14.55;;;20.90;85.30;;;;;;2056964;28;20161;-71
2021/07/25 02:26:08;;;;;;;16.75;14.55;;;20.80;85.10;;;;;;2056360;28;20039;-71
2021/07/25 02:27:09;;;;;;;17.65;14.98;;;20.80;84.80;;;;;;2056932;28;20038;-71
2021/07/25 02:28:10;;;;;;;17.10;15.20;;;20.80;84.40;;;;;;2056909;28;20035;-71
2021/07/25 02:29:11;;;;;;;18.50;14.70;;;20.80;84.20;;;;;;2056855;28;20030;-71
2021/07/25 02:30:12;;;;;;;16.30;14.60;;;20.80;83.90;;;;;;2056968;28;20077;-72
2021/07/25 02:31:12;;;;;;;16.38;14.43;;;20.80;84.00;;;;;;2057132;28;20037;-70
2021/07/25 02:32:14;;;;;;;18.02;14.77;;;20.80;84.00;;;;;;2056821;28;20037;-70
2021/07/25 02:33:14;;;;;;;17.73;14.43;;;20.80;83.80;;;;;;2056982;28;20035;-70
2021/07/25 02:34:16;;;;;;;17.05;14.95;;;20.80;83.90;;;;;;2056858;28;20042;-71
2021/07/25 02:35:17;;;;;;;18.45;16.17;;;20.80;84.70;;;;;;2056966;28;20023;-73
2021/07/25 02:36:17;;;;;;;20.38;16.70;;;20.80;87.60;;;;;;2056228;28;20034;-70
2021/07/25 02:37:18;;;;;;;20.10;16.95;;;20.80;90.00;;;;;;2056748;28;20039;-71
2021/07/25 02:38:19;;;;;;;20.23;17.30;;;20.80;90.20;;;;;;2056991;28;20023;-69
2021/07/25 02:39:19;;;;;;;19.08;16.98;;;20.80;90.60;;;;;;2056891;28;20035;-70
2021/07/25 02:40:20;;;;;;;20.55;17.15;;;20.80;90.90;;;;;;2056933;28;20027;-72
2021/07/25 02:41:20;;;;;;;18.30;16.02;;;20.80;91.20;;;;;;2056930;28;20038;-70
2021/07/25 02:42:21;;;;;;;20.75;15.95;;;20.80;91.30;;;;;;2056280;28;20031;-69
2021/07/25 02:43:22;;;;;;;19.23;16.13;;;20.80;91.10;;;;;;2056267;28;20529;-70
2021/07/25 02:44:22;;;;;;;19.35;16.65;;;20.80;90.90;;;;;;2056870;28;20061;-70
2021/07/25 02:45:23;;;;;;;17.98;16.08;;;20.80;90.70;;;;;;2056510;28;20023;-69
2021/07/25 02:46:24;;;;;;;17.83;15.63;;;20.80;90.60;;;;;;2056972;28;20185;-70
2021/07/25 02:47:24;;;;;;;18.85;16.20;;;20.80;90.30;;;;;;2056770;28;20054;-70
2021/07/25 02:48:25;;;;;;;18.00;15.45;;;20.80;90.10;;;;;;2056612;28;20034;-71
2021/07/25 02:49:25;;;;;;;18.98;15.68;;;20.80;89.90;;;;;;2056159;28;20486;-69
2021/07/25 02:50:26;;;;;;;18.55;15.30;;;20.80;89.30;;;;;;2056216;28;20035;-69
2021/07/25 02:51:26;;;;;;;19.45;15.95;;;20.80;89.00;;;;;;2056744;28;20092;-70
2021/07/25 02:52:27;;;;;;;17.77;15.48;;;20.80;88.50;;;;;;2055936;28;20039;-71
2021/07/25 02:53:27;;;;;;;17.73;15.15;;;20.80;88.10;;;;;;2056461;28;20096;-69
2021/07/25 02:54:28;;;;;;;17.35;15.38;;;20.80;87.70;;;;;;2056698;28;20078;-71
2021/07/25 02:55:29;;;;;;;16.70;14.88;;;20.80;87.70;;;;;;2056108;28;20026;-71
2021/07/25 02:56:30;;;;;;;17.60;15.57;;;20.80;87.50;;;;;;2056714;28;20033;-71
2021/07/25 02:57:31;;;;;;;17.95;15.60;;;20.80;87.00;;;;;;2056841;28;20150;-70
2021/07/25 02:58:31;;;;;;;18.65;15.63;;;20.80;86.60;;;;;;2056623;28;20113;-71
2021/07/25 02:59:32;;;;;;;16.85;14.95;;;20.80;86.40;;;;;;2057010;28;20089;-70
2021/07/25 03:00:32;;;;;;;17.73;15.43;;;20.80;86.50;;;;;;2056852;28;20106;-72
2021/07/25 03:01:33;;;;;;;16.83;15.07;;;20.80;86.40;;;;;;2056977;28;20069;-71
2021/07/25 03:02:36;;;;;;;16.40;14.55;;;20.80;86.00;;;;;;2056757;28;20035;-71
2021/07/25 03:03:37;;;;;;;17.98;15.32;;;20.80;85.80;;;;;;2056883;28;20030;-70
2021/07/25 03:04:41;;;;;;;17.83;15.57;;;20.80;85.40;;;;;;2056993;28;20474;-70
2021/07/25 03:05:41;;;;;;;17.10;15.18;;;20.80;85.10;;;;;;2055916;28;20154;-70
2021/07/25 03:06:42;;;;;;;16.83;15.00;;;20.80;85.00;;;;;;2056820;28;20026;-70
2021/07/25 03:07:42;;;;;;;17.60;14.88;;;20.80;84.70;;;;;;2056611;28;20042;-71
2021/07/25 03:08:43;;;;;;;16.73;14.93;;;20.80;84.50;;;;;;2056123;28;20019;-70
2021/07/25 03:09:44;;;;;;;17.80;15.43;;;20.80;84.70;;;;;;2056169;28;20019;-69
2021/07/25 03:10:44;;;;;;;17.35;15.05;;;20.90;84.70;;;;;;2048109;28;20114;-69
2021/07/25 03:11:45;;;;;;;17.92;15.30;;;20.90;84.20;;;;;;2048355;29;20526;-73
2021/07/25 03:12:45;;;;;;;17.00;14.55;;;20.90;83.90;;;;;;2056124;28;20031;-70
2021/07/25 03:13:46;;;;;;;17.15;14.38;;;20.80;83.30;;;;;;2055969;28;20029;-70
2021/07/25 03:14:47;;;;;;;17.25;15.40;;;20.80;82.60;;;;;;2056063;28;20731;-69
2021/07/25 03:15:47;;;;;;;19.65;15.88;;;20.80;82.00;;;;;;2055949;28;20050;-70
2021/07/25 03:16:48;;;;;;;18.85;16.20;;;20.80;81.10;;;;;;2056600;28;20022;-70
2021/07/25 03:17:48;;;;;;;20.15;16.70;;;20.90;83.70;;;;;;2056614;28;20670;-69
2021/07/25 03:18:49;;;;;;;22.85;17.23;;;20.90;85.40;;;;;;2056548;28;20073;-71
2021/07/25 03:19:49;;;;;;;18.15;16.05;;;20.80;85.00;;;;;;2056605;28;20034;-71
2021/07/25 03:20:50;;;;;;;17.85;15.95;;;20.80;84.90;;;;;;2056600;28;20034;-72
2021/07/25 03:21:50;;;;;;;19.13;16.30;;;20.80;84.90;;;;;;2056661;28;20027;-71
2021/07/25 03:22:51;;;;;;;18.67;15.43;;;20.80;85.10;;;;;;2057417;28;20062;-71
2021/07/25 03:23:52;;;;;;;17.67;15.30;;;20.80;85.10;;;;;;2057666;28;20027;-71
2021/07/25 03:24:52;;;;;;;19.05;15.85;;;20.80;85.30;;;;;;2056841;28;20085;-70
2021/07/25 03:25:53;;;;;;;17.13;15.32;;;20.70;85.50;;;;;;2055957;28;20033;-70
2021/07/25 03:26:54;;;;;;;17.45;15.07;;;20.70;85.80;;;;;;2057057;28;20031;-71
2021/07/25 03:27:54;;;;;;;17.50;15.57;;;20.70;85.90;;;;;;2056798;28;20030;-70
2021/07/25 03:28:55;;;;;;;16.98;15.18;;;20.70;86.30;;;;;;2056838;28;20026;-70
2021/07/25 03:29:56;;;;;;;18.23;14.75;;;20.70;86.60;;;;;;2056610;28;20057;-70
2021/07/25 03:30:56;;;;;;;16.42;14.55;;;20.60;86.20;;;;;;2056462;28;20124;-70
2021/07/25 03:31:57;;;;;;;16.88;14.75;;;20.60;85.80;;;;;;2056532;28;20029;-71
2021/07/25 03:32:58;;;;;;;17.40;14.52;;;20.60;85.10;;;;;;2056500;28;20097;-70
2021/07/25 03:33:59;;;;;;;17.02;15.18;;;20.60;85.10;;;;;;2056482;28;20026;-70
2021/07/25 03:35:00;;;;;;;17.52;14.63;;;20.60;85.00;;;;;;2055890;28;20117;-70
2021/07/25 03:36:00;;;;;;;17.30;14.93;;;20.60;84.00;;;;;;2054930;28;20039;-72
2021/07/25 03:37:02;;;;;;;16.67;14.73;;;20.60;83.60;;;;;;2056475;28;20042;-69
2021/07/25 03:38:03;;;;;;;16.52;14.73;;;20.60;82.70;;;;;;2056418;28;20030;-69
2021/07/25 03:39:10;;;;;;;15.95;14.13;;;20.60;82.30;;;;;;2056397;28;20513;-70
2021/07/25 03:40:12;;;;;;;17.23;14.82;;;20.60;82.20;;;;;;2056526;28;20023;-71
2021/07/25 03:41:12;;;;;;;16.95;14.85;;;20.60;82.10;;;;;;2056573;28;20410;-70
2021/07/25 03:42:14;;;;;;;15.98;14.15;;;20.60;82.10;;;;;;2055831;28;20113;-70
2021/07/25 03:43:15;;;;;;;16.48;14.65;;;20.60;81.80;;;;;;2055785;28;20065;-71
2021/07/25 03:44:16;;;;;;;16.98;14.20;;;20.60;81.50;;;;;;2056302;28;20047;-71
2021/07/25 03:45:17;;;;;;;17.02;14.68;;;20.60;81.50;;;;;;2055788;28;20086;-70
2021/07/25 03:46:17;;;;;;;16.95;14.02;;;20.60;81.40;;;;;;2055114;28;20027;-71
2021/07/25 03:47:18;;;;;;;18.17;14.77;;;20.60;81.60;;;;;;2056337;28;20407;-71
2021/07/25 03:48:19;;;;;;;15.32;13.70;;;20.60;81.80;;;;;;2056394;28;20129;-70
2021/07/25 03:49:20;;;;;;;16.08;14.20;;;20.60;81.80;;;;;;2056183;28;20035;-72
2021/07/25 03:50:21;;;;;;;16.40;13.93;;;20.60;81.60;;;;;;2056352;28;20034;-71
2021/07/25 03:51:22;;;;;;;16.98;14.40;;;20.60;81.60;;;;;;2055835;28;20086;-71
2021/07/25 03:52:23;;;;;;;16.92;14.93;;;20.60;81.80;;;;;;2055790;28;20109;-71
2021/07/25 03:53:23;;;;;;;17.38;15.35;;;20.50;81.60;;;;;;2056320;28;20545;-71
2021/07/25 03:54:24;;;;;;;16.33;14.27;;;20.50;81.20;;;;;;2056347;28;20027;-72
2021/07/25 03:55:25;;;;;;;16.83;14.95;;;20.50;81.50;;;;;;2056426;28;20065;-70
2021/07/25 03:56:25;;;;;;;16.45;14.75;;;20.50;81.70;;;;;;2055604;28;20142;-71
2021/07/25 03:57:26;;;;;;;16.13;14.43;;;20.60;82.30;;;;;;2055672;28;20030;-70
2021/07/25 03:58:26;;;;;;;17.50;15.07;;;20.50;82.50;;;;;;2047639;29;20100;-71
2021/07/25 03:59:27;;;;;;;16.75;14.88;;;20.50;82.50;;;;;;2055558;28;20106;-70
2021/07/25 04:00:27;;;;;;;16.25;14.55;;;20.50;82.70;;;;;;2056291;28;20501;-71
2021/07/25 04:01:28;;;;;;;15.73;14.02;;;20.50;82.40;;;;;;2056297;28;20034;-71
2021/07/25 04:02:28;;;;;;;15.88;14.18;;;20.50;82.50;;;;;;2056188;28;20077;-70
2021/07/25 04:03:29;;;;;;;16.42;14.57;;;20.50;82.80;;;;;;2056072;28;20027;-70
2021/07/25 04:04:30;;;;;;;16.83;14.90;;;20.60;83.30;;;;;;2056055;28;20035;-70
2021/07/25 04:05:31;;;;;;;18.13;14.98;;;20.60;83.10;;;;;;2055877;28;20491;-74
2021/07/25 04:06:32;;;;;;;17.88;14.35;;;20.60;83.10;;;;;;2056278;28;20111;-70
2021/07/25 04:07:32;;;;;;;17.25;14.23;;;20.60;83.00;;;;;;2056315;28;20533;-70
2021/07/25 04:08:33;;;;;;;16.20;14.00;;;20.60;83.00;;;;;;2056299;28;20509;-70
2021/07/25 04:09:33;;;;;;;15.98;13.77;;;20.70;83.10;;;;;;2056254;28;20035;-70
2021/07/25 04:10:39;;;;;;;15.40;13.70;;;20.70;83.10;;;;;;2056446;28;20037;-69
2021/07/25 04:11:40;;;;;;;15.98;13.88;;;20.70;82.90;;;;;;2056356;28;20067;-69
2021/07/25 04:12:41;;;;;;;15.52;13.80;;;20.70;82.90;;;;;;2056161;28;20043;-69
2021/07/25 04:13:41;;;;;;;18.10;15.18;;;20.70;83.40;;;;;;2056221;28;20109;-70
2021/07/25 04:14:42;;;;;;;18.23;14.90;;;20.80;84.40;;;;;;2056234;28;20023;-70
2021/07/25 04:15:45;;;;;;;17.48;15.50;;;20.80;84.80;;;;;;2055593;28;20030;-70
2021/07/25 04:16:46;;;;;;;17.73;14.82;;;20.80;85.00;;;;;;2056290;28;20027;-70
2021/07/25 04:17:46;;;;;;;18.15;14.95;;;20.90;84.70;;;;;;2055731;28;20026;-70
2021/07/25 04:18:47;;;;;;;16.98;14.80;;;20.90;84.80;;;;;;2055700;28;20430;-70
2021/07/25 04:19:47;;;;;;;15.93;14.23;;;20.90;84.70;;;;;;2056208;28;20513;-70
2021/07/25 04:20:48;;;;;;;17.00;14.50;;;20.90;84.30;;;;;;2056156;28;20038;-70
2021/07/25 04:21:49;;;;;;;22.00;15.55;;;20.90;84.50;;;;;;2055503;28;20033;-70
2021/07/25 04:22:49;;;;;;;21.33;15.98;;;20.90;84.90;;;;;;2055470;28;20718;-71
2021/07/25 04:23:50;;;;;;;18.17;15.13;;;20.90;84.30;;;;;;2056158;28;20387;-72
2021/07/25 04:24:50;;;;;;;16.75;14.90;;;20.90;85.10;;;;;;2056201;28;20109;-70
2021/07/25 04:25:51;;;;;;;17.98;14.68;;;20.90;85.40;;;;;;2055230;28;20484;-72
2021/07/25 04:26:52;;;;;;;19.20;15.50;;;20.90;85.80;;;;;;2056359;28;20390;-70
2021/07/25 04:27:53;;;;;;;17.48;14.88;;;20.90;85.80;;;;;;2056218;28;20085;-70
2021/07/25 04:28:54;;;;;;;16.40;14.50;;;20.90;85.60;;;;;;2055592;28;20466;-71
2021/07/25 04:29:56;;;;;;;16.88;14.88;;;20.90;85.40;;;;;;2055623;28;20710;-70
2021/07/25 04:30:57;;;;;;;17.98;14.77;;;21.00;84.20;;;;;;2055973;28;20023;-69
2021/07/25 04:31:58;;;;;;;15.73;14.07;;;21.00;84.20;;;;;;2056345;28;20033;-70
2021/07/25 04:33:00;;;;;;;16.45;14.23;;;21.00;84.20;;;;;;2056066;28;20038;-69
2021/07/25 04:34:01;;;;;;;16.98;14.02;;;21.00;83.80;;;;;;2056032;28;20645;-70
2021/07/25 04:35:02;;;;;;;14.88;13.27;;;21.00;83.00;;;;;;2056120;28;20042;-70
2021/07/25 04:36:11;;;;;;;15.45;13.85;;;21.00;82.50;;;;;;2054683;28;20401;-69
2021/07/25 04:37:22;;;;;;;15.80;14.13;;;21.00;82.30;;;;;;2055637;28;20030;-71
2021/07/25 04:38:23;;;;;;;15.55;13.88;;;21.10;83.20;;;;;;2056178;28;20062;-69
2021/07/25 04:39:23;;;;;;;15.27;13.68;;;21.10;82.10;;;;;;2056014;28;20042;-69
2021/07/25 04:40:24;;;;;;;17.02;13.50;;;21.10;82.00;;;;;;2056251;28;20033;-70
2021/07/25 04:41:28;;;;;;;17.17;14.18;;;21.10;81.40;;;;;;2055679;28;20119;-69
2021/07/25 04:42:33;;;;;;;14.52;13.00;;;21.10;81.40;;;;;;2047899;28;20491;-70
2021/07/25 04:43:36;;;;;;;16.17;13.27;;;21.10;81.70;;;;;;2055593;28;20557;-71
2021/07/25 04:44:45;;;;;;;16.23;13.98;;;21.20;81.90;;;;;;2056123;28;20743;-71
2021/07/25 04:45:48;;;;;;;18.10;14.32;;;21.20;81.70;;;;;;2055428;28;20027;-70
2021/07/25 04:46:55;;;;;;;16.85;14.27;;;21.20;80.30;;;;;;2056097;28;20031;-71
2021/07/25 04:48:07;;;;;;;15.35;13.70;;;21.20;80.80;;;;;;2055353;28;20026;-70
2021/07/25 04:49:13;;;;;;;16.10;14.18;;;21.20;81.00;;;;;;2055565;28;20038;-69
2021/07/25 04:50:16;;;;;;;17.02;13.95;;;21.30;80.80;;;;;;2055403;28;20035;-70
2021/07/25 04:51:18;;;;;;;16.52;13.98;;;21.30;80.90;;;;;;2047669;28;20034;-70
2021/07/25 04:52:21;;;;;;;16.92;13.68;;;21.30;80.90;;;;;;2055498;28;20098;-70
2021/07/25 04:53:27;;;;;;;15.00;13.40;;;21.30;80.80;;;;;;2055875;28;20023;-70
2021/07/25 04:54:34;;;;;;;18.25;13.82;;;21.40;80.00;;;;;;2056034;28;20045;-71
2021/07/25 04:55:35;;;;;;;16.83;13.45;;;21.40;79.50;;;;;;2055669;28;20050;-70
2021/07/25 04:56:40;;;;;;;16.23;13.43;;;21.40;79.30;;;;;;2055838;28;20030;-72
2021/07/25 04:57:42;;;;;;;15.70;13.80;;;21.40;78.90;;;;;;2056163;28;20097;-70
2021/07/25 04:59:02;;;;;;;16.58;13.30;;;21.50;78.90;;;;;;2056348;28;20031;-70
2021/07/25 05:00:04;;;;;;;18.23;13.63;;;21.50;78.80;;;;;;2055354;28;20029;-70
2021/07/25 05:01:05;;;;;;;15.35;13.32;;;21.50;78.40;;;;;;2055422;28;20545;-71
2021/07/25 05:02:07;;;;;;;18.05;13.93;;;21.60;77.70;;;;;;2056170;28;20023;-70
2021/07/25 05:03:09;;;;;;;16.10;13.75;;;21.60;77.30;;;;;;2056181;28;20045;-70
2021/07/25 05:04:09;;;;;;;16.30;14.07;;;21.70;77.00;;;;;;2056391;28;20031;-70
2021/07/25 05:05:11;;;;;;;17.08;14.23;;;21.90;76.60;;;;;;2056139;28;20513;-69
2021/07/25 05:06:14;;;;;;;15.52;13.43;;;21.90;75.90;;;;;;2054775;28;20043;-70
2021/07/25 05:07:15;;;;;;;16.65;13.82;;;22.00;75.50;;;;;;2055618;28;20125;-71
2021/07/25 05:08:16;;;;;;;15.13;13.27;;;22.10;74.50;;;;;;2056161;28;20050;-70
2021/07/25 05:09:17;;;;;;;15.45;13.55;;;22.30;73.90;;;;;;2055651;28;20027;-70
2021/07/25 05:10:19;;;;;;;15.32;13.25;;;22.40;73.00;;;;;;2047627;28;20058;-71
2021/07/25 05:11:23;;;;;;;18.65;14.30;;;22.60;72.10;;;;;;2055528;28;20031;-71
2021/07/25 05:12:36;;;;;;;17.27;13.85;;;22.60;72.00;;;;;;2056243;28;20022;-71
2021/07/25 05:13:38;;;;;;;16.98;14.13;;;22.60;72.30;;;;;;2056029;28;20150;-70
2021/07/25 05:14:51;;;;;;;17.08;13.55;;;22.60;72.50;;;;;;2056060;28;20522;-72